Englewood, TN (37329)

10:54 PM EDT on May 25, 2015 (GMT -0400)
A Starr Mountain View | | Change Station
CLOSE
Current Station
Personal Weather Station
Location: Etowah, TN
Elevation: 950 ft
Nearby Weather Stations

Elev 950 ft 35.33 °N, 84.49 °W | Updated 2 seconds ago

Overcast
Overcast
66.7 °F
Feels Like 66.7 °F
N
3.0
Wind Variable Wind from North
Gusts 4.0 mph

Today
High -- | Low -- °F
--% Chance of Precip.
Yesterday
High -- | Low -- °F
Precip. -- in
6:27 AM 8:42 PM
First Quarter, 54% visible
Pressure 30.19 in
Visibility 10.0 miles
Clouds Clear
Dew Point 66 °F
Humidity 96%
Rainfall 0.72 in
Snow Depth Not available.
UV 0 out of 12
Pollen 6.70 out of 12
Air Quality Not available.
Flu Activity Sporadic
METAR KRZR 260235Z AUTO 00000KT 10SM CLR 19/18 A3019 RMK

More Conditions Fewer Conditions

Pressure 30.19 in
Visibility 10.0 miles
Clouds Clear
Dew Point 66 °F
Humidity 96%
Rainfall 0.72 in
Snow Depth Not available.
UV 0 out of 12
Pollen 6.70 out of 12
Air Quality Not available.
Flu Activity Sporadic
METAR KRZR 260235Z AUTO 00000KT 10SM CLR 19/18 A3019 RMK

More Conditions Fewer Conditions

10-Day Weather Forecast

Almanac

Astronomy

May. 25, 2015 Rise Set
Actual Time
Civil Twilight
Nautical Twilight
Astronomical Twilight
Moon
Length of Visible Light
Length of Day
Tomorrow will be .
, % of the Moon is Illuminated

Today's Extremes

State Highs State Lows

Community

WunderPhotos

Upload Photos

1,824,238 photos uploaded!

WunderBlogs® & News

Nearby

Air Quality

  Air Quality AQ Index Pollutant
Not available.

Snow Depth

Station Depth Elevation

Earthquake Activity

City Distance Mag. Time & Date
Minimum magnitude displayed is 2.5.

Coastal Water Temperatures

Place Temperature

Stations

Nearby Weather Stations

Station Location Temp. Windchill Dew Point Humidity Wind Precip. Elev Updated Type